Time;durP1;ratioP1;P1;durP2;ratioP2;P2;SDS_P1;SDS_P2;PMS_P1;PMS_P2;Temp;Humidity;BMP_temperature;BMP_pressure;BME280_temperature;BME280_humidity;BME280_pressure;Samples;Min_cycle;Max_cycle;Signal;HPM_P1;HPM_P2
2022/01/04 00:01:59;;;;;;;4.63;2.78;;;;;;;-12.61;66.86;98082.22;4905528;29;20051;-77
2022/01/04 00:04:25;;;;;;;3.78;2.65;;;;;;;-12.66;66.52;98078.84;4936912;29;20050;-78
2022/01/04 00:06:51;;;;;;;3.70;2.50;;;;;;;-12.70;66.77;98087.47;4937072;29;20060;-78
2022/01/04 00:09:17;;;;;;;4.97;2.45;;;;;;;-12.70;66.54;98079.75;4937223;29;20054;-79
2022/01/04 00:14:10;;;;;;;4.93;3.13;;;;;;;-12.78;66.71;98076.38;4937166;29;20055;-78
2022/01/04 00:16:36;;;;;;;4.45;3.30;;;;;;;-12.65;66.78;98065.09;4952922;29;20055;-77
2022/01/04 00:19:02;;;;;;;6.18;2.97;;;;;;;-12.59;66.71;98082.22;4936815;29;20419;-77
2022/01/04 00:21:28;;;;;;;4.18;3.67;;;;;;;-12.49;66.30;98074.41;4936626;29;20052;-78
2022/01/04 00:23:54;;;;;;;4.43;3.42;;;;;;;-12.53;66.33;98089.88;4936711;29;20075;-79
2022/01/04 00:26:20;;;;;;;5.22;2.90;;;;;;;-12.46;65.96;98077.81;4920997;29;20088;-78
2022/01/04 00:28:46;;;;;;;3.50;2.72;;;;;;;-12.49;65.71;98089.00;4938018;29;20090;-79
2022/01/04 00:31:12;;;;;;;5.85;3.08;;;;;;;-12.51;65.45;98091.59;4952410;29;20055;-78
2022/01/04 00:33:38;;;;;;;4.10;2.80;;;;;;;-12.59;65.70;98093.38;4936364;29;20122;-80
2022/01/04 00:36:05;;;;;;;7.00;3.05;;;;;;;-12.66;65.72;98096.88;4937836;29;20036;-83
2022/01/04 00:38:31;;;;;;;5.28;3.10;;;;;;;-12.65;65.51;98088.25;4924133;29;20054;-84
2022/01/04 00:40:57;;;;;;;4.03;3.15;;;;;;;-12.76;65.55;98096.06;4956895;29;20047;-80
2022/01/04 00:43:23;;;;;;;4.65;3.08;;;;;;;-12.58;65.68;98089.94;4957137;29;20051;-80
2022/01/04 00:45:49;;;;;;;4.25;3.35;;;;;;;-12.50;65.51;98085.56;4956678;29;20047;-80
2022/01/04 00:50:41;;;;;;;5.30;3.20;;;;;;;-12.62;65.00;98092.53;4939561;29;20097;-78
2022/01/04 00:53:07;;;;;;;6.93;3.53;;;;;;;-12.56;65.53;98085.63;4956577;29;20094;-80
2022/01/04 00:55:34;;;;;;;7.97;3.95;;;;;;;-12.50;64.96;98080.41;4939382;29;20043;-79
2022/01/04 00:58:00;;;;;;;9.63;4.20;;;;;;;-12.31;65.51;98099.13;4939222;29;20491;-79
2022/01/04 01:00:26;;;;;;;4.97;3.55;;;;;;;-12.35;64.67;98092.31;4939243;29;20411;-80
2022/01/04 01:02:53;;;;;;;5.28;3.28;;;;;;;-12.43;64.03;98109.53;4939602;29;20162;-81
2022/01/04 01:05:19;;;;;;;10.40;3.65;;;;;;;-12.44;64.21;98094.13;4924001;29;20063;-79
2022/01/04 01:07:45;;;;;;;6.57;3.60;;;;;;;-12.43;63.93;98108.69;4939402;29;20054;-79
2022/01/04 01:10:36;;;;;;;8.50;3.28;;;;;;;-12.37;64.20;98099.19;4940526;29;20051;-79
2022/01/04 01:13:01;;;;;;;5.88;3.30;;;;;;;-12.25;63.86;98113.69;4914473;29;20122;-78
2022/01/04 01:15:27;;;;;;;3.28;1.98;;;;;;;-12.31;63.30;98096.56;4957095;29;20522;-79
2022/01/04 01:17:53;;;;;;;6.65;3.78;;;;;;;-12.31;63.53;98118.88;4924976;29;20182;-79
2022/01/04 01:20:19;;;;;;;5.50;3.67;;;;;;;-12.34;63.65;98098.31;4957077;28;20145;-79
2022/01/04 01:22:45;;;;;;;5.10;3.58;;;;;;;-12.25;63.68;98114.53;4924165;29;20474;-79
2022/01/04 01:25:13;;;;;;;11.77;3.78;;;;;;;-12.31;63.13;98101.69;4923584;29;20134;-78
2022/01/04 01:27:40;;;;;;;6.53;3.47;;;;;;;-12.25;63.51;98111.13;4956409;29;20039;-79
2022/01/04 01:30:07;;;;;;;4.30;2.88;;;;;;;-12.31;63.43;98103.44;4942481;29;20058;-80
2022/01/04 01:32:33;;;;;;;4.22;3.22;;;;;;;-12.35;63.02;98091.44;4924811;29;20067;-78
2022/01/04 01:34:59;;;;;;;5.18;3.35;;;;;;;-12.41;62.61;98112.09;4958608;29;20058;-78
2022/01/04 01:37:25;;;;;;;8.60;3.95;;;;;;;-12.39;62.95;98102.66;4904069;29;20066;-78
2022/01/04 01:39:51;;;;;;;6.65;3.70;;;;;;;-12.43;62.84;98109.53;4936506;29;20138;-79
2022/01/04 01:42:17;;;;;;;5.38;3.08;;;;;;;-12.48;63.02;98109.59;4935065;29;20102;-80
2022/01/04 01:44:42;;;;;;;8.77;4.18;;;;;;;-12.50;63.09;98113.88;4919552;29;20071;-79
2022/01/04 01:47:08;;;;;;;5.95;3.60;;;;;;;-12.50;63.22;98108.72;4934580;29;20127;-78
2022/01/04 01:49:35;;;;;;;7.93;3.58;;;;;;;-12.60;62.94;98127.69;4903457;29;20054;-77
2022/01/04 01:52:01;;;;;;;4.40;3.83;;;;;;;-12.71;63.11;98116.63;4919204;29;20051;-78
2022/01/04 01:54:27;;;;;;;6.82;3.35;;;;;;;-12.74;63.56;98112.34;4903349;29;20040;-79
2022/01/04 01:56:53;;;;;;;4.90;3.08;;;;;;;-12.72;63.15;98110.63;4919408;29;20128;-79
2022/01/04 01:59:19;;;;;;;6.22;3.20;;;;;;;-12.84;63.36;98100.41;4935090;29;20046;-79
2022/01/04 02:01:46;;;;;;;5.53;3.78;;;;;;;-12.84;63.44;98110.72;4903279;29;20451;-80
2022/01/04 02:04:12;;;;;;;8.68;3.42;;;;;;;-12.88;63.02;98100.47;4919063;29;20503;-80
2022/01/04 02:06:38;;;;;;;4.95;3.28;;;;;;;-12.98;63.02;98120.22;4918936;29;20048;-80
2022/01/04 02:09:05;;;;;;;7.60;3.67;;;;;;;-13.04;63.43;98123.69;4934918;29;20055;-79
2022/01/04 02:11:31;;;;;;;5.47;3.38;;;;;;;-13.05;63.23;98126.28;4903767;29;20059;-81
2022/01/04 02:13:57;;;;;;;8.93;4.03;;;;;;;-13.11;62.94;98128.91;4918900;29;20048;-78
2022/01/04 02:16:27;;;;;;;8.45;3.92;;;;;;;-13.30;63.42;98117.88;4903165;29;20391;-78
2022/01/04 02:19:01;;;;;;;3.70;2.75;;;;;;;-13.33;63.58;98130.75;4934481;29;20126;-78
2022/01/04 02:21:27;;;;;;;9.77;4.05;;;;;;;-13.37;62.98;98134.19;4903260;29;20043;-78
2022/01/04 02:23:53;;;;;;;3.88;2.85;;;;;;;-13.42;63.70;98128.19;4903028;29;20090;-77
2022/01/04 02:26:19;;;;;;;3.95;3.33;;;;;;;-13.50;62.94;98141.97;4934870;29;20045;-79
2022/01/04 02:28:45;;;;;;;5.20;3.55;;;;;;;-13.64;63.89;98140.31;4934524;29;20136;-78
2022/01/04 02:31:11;;;;;;;4.03;3.33;;;;;;;-13.80;63.84;98130.06;4918768;29;20047;-78
2022/01/04 02:33:37;;;;;;;7.88;3.67;;;;;;;-13.73;64.04;98143.72;4935601;29;20051;-78
2022/01/04 02:36:04;;;;;;;2.92;2.40;;;;;;;-13.75;64.42;98146.31;4920318;29;20066;-78
2022/01/04 02:38:30;;;;;;;6.22;4.10;;;;;;;-13.85;64.35;98133.50;4903327;29;20058;-79
2022/01/04 02:40:56;;;;;;;6.10;3.75;;;;;;;-13.84;64.57;98140.34;4935657;29;20151;-76
2022/01/04 02:43:21;;;;;;;6.57;3.75;;;;;;;-13.89;64.49;98142.06;4918513;29;20582;-77
2022/01/04 02:45:48;;;;;;;4.43;2.80;;;;;;;-13.98;64.28;98138.66;4935476;29;20058;-78
2022/01/04 02:48:14;;;;;;;5.78;3.47;;;;;;;-14.06;64.46;98145.53;4935839;29;20067;-78
2022/01/04 02:50:41;;;;;;;8.13;3.33;;;;;;;-14.15;64.22;98140.41;4919006;29;20452;-78
2022/01/04 02:53:07;;;;;;;4.70;2.72;;;;;;;-14.20;64.67;98152.41;4887244;29;20044;-79
2022/01/04 02:55:33;;;;;;;4.47;3.17;;;;;;;-14.27;64.32;98155.81;4934520;29;20039;-77
2022/01/04 02:57:59;;;;;;;7.65;3.75;;;;;;;-14.39;64.30;98158.41;4921248;29;20074;-78
2022/01/04 03:00:26;;;;;;;4.28;2.97;;;;;;;-14.56;64.42;98149.00;4922531;29;20043;-78
2022/01/04 03:02:52;;;;;;;3.55;2.85;;;;;;;-14.66;64.73;98143.91;4922343;29;20051;-77
2022/01/04 03:05:18;;;;;;;4.65;3.80;;;;;;;-14.77;64.66;98129.34;4922569;29;20463;-78
2022/01/04 03:07:44;;;;;;;4.50;2.83;;;;;;;-14.72;65.01;98148.16;4922043;29;20142;-77
2022/01/04 03:10:10;;;;;;;7.45;3.97;;;;;;;-14.84;65.33;98154.97;4921752;29;20059;-78
2022/01/04 03:12:38;;;;;;;8.65;3.78;;;;;;;-14.95;65.10;98144.69;4939140;29;20047;-78
2022/01/04 03:15:05;;;;;;;7.47;3.30;;;;;;;-15.08;65.81;98156.66;4937901;29;20594;-78
2022/01/04 03:17:31;;;;;;;8.07;2.95;;;;;;;-15.23;66.60;98159.13;4937752;29;20102;-77
2022/01/04 03:19:57;;;;;;;5.18;3.45;;;;;;;-15.25;66.55;98160.84;4937442;29;20048;-77
2022/01/04 03:22:23;;;;;;;12.57;2.90;;;;;;;-15.30;66.84;98158.28;4939025;29;20043;-76
2022/01/04 03:24:49;;;;;;;5.28;2.22;;;;;;;-15.35;67.38;98161.66;4921731;29;20044;-77
2022/01/04 03:27:15;;;;;;;5.65;3.28;;;;;;;-15.46;67.19;98170.16;4921601;29;20043;-77
2022/01/04 03:29:41;;;;;;;2.50;2.30;;;;;;;-15.50;67.46;98175.28;4921546;29;20419;-77
2022/01/04 03:32:07;;;;;;;6.63;2.70;;;;;;;-15.58;67.13;98180.34;4921406;29;20044;-77
2022/01/04 03:34:33;;;;;;;6.50;3.72;;;;;;;-15.60;67.29;98178.66;4921773;29;20042;-78
2022/01/04 03:36:59;;;;;;;5.60;3.03;;;;;;;-15.67;67.14;98182.94;4945501;29;20141;-77
2022/01/04 03:39:26;;;;;;;4.82;3.30;;;;;;;-15.73;67.12;98188.00;4956678;29;20042;-77
2022/01/04 03:41:52;;;;;;;4.40;2.28;;;;;;;-15.93;66.99;98181.06;4924929;29;20085;-78
2022/01/04 03:44:21;;;;;;;3.25;2.35;;;;;;;-15.96;67.08;98175.91;4940486;29;20047;-78
2022/01/04 03:46:48;;;;;;;4.78;3.70;;;;;;;-15.99;66.86;98186.13;4909756;29;20047;-78
2022/01/04 03:49:14;;;;;;;7.47;3.40;;;;;;;-16.06;67.48;98189.50;4909184;29;20051;-77
2022/01/04 03:51:41;;;;;;;3.05;2.42;;;;;;;-16.04;67.32;98192.94;4940774;29;20043;-77
2022/01/04 03:54:07;;;;;;;3.70;3.10;;;;;;;-16.06;67.08;98189.50;4957251;29;20110;-78
2022/01/04 03:56:33;;;;;;;9.27;3.28;;;;;;;-16.12;67.07;98192.03;4924750;29;20055;-76
2022/01/04 03:58:59;;;;;;;3.42;2.38;;;;;;;-16.15;67.23;98194.56;4958496;29;20411;-78
2022/01/04 04:01:25;;;;;;;6.25;3.47;;;;;;;-16.15;67.02;98202.25;4893330;29;20039;-79
2022/01/04 04:03:51;;;;;;;2.35;2.15;;;;;;;-16.11;66.97;98214.22;4940396;29;20400;-79
2022/01/04 04:06:17;;;;;;;2.40;2.20;;;;;;;-16.15;67.41;98209.91;4924367;29;20530;-78
2022/01/04 04:08:43;;;;;;;7.13;4.35;;;;;;;-16.19;67.42;98214.16;4939653;29;20055;-78
2022/01/04 04:11:09;;;;;;;4.95;3.22;;;;;;;-16.19;67.39;98218.41;4925097;29;20074;-79
2022/01/04 04:13:34;;;;;;;3.33;2.80;;;;;;;-16.19;67.25;98228.66;4958286;29;20089;-78
2022/01/04 04:16:00;;;;;;;4.70;2.90;;;;;;;-16.14;67.14;98228.69;4924279;29;20071;-80
2022/01/04 04:18:27;;;;;;;4.57;3.17;;;;;;;-16.18;67.04;98225.25;4920946;29;20081;-78
2022/01/04 04:20:53;;;;;;;4.63;2.95;;;;;;;-16.25;66.99;98234.56;4920825;29;20047;-79
2022/01/04 04:23:19;;;;;;;5.22;3.20;;;;;;;-16.28;67.20;98232.00;4904880;29;20142;-77
2022/01/04 04:25:46;;;;;;;5.00;3.03;;;;;;;-16.33;66.76;98235.34;4937764;29;20040;-78
2022/01/04 04:28:11;;;;;;;5.03;3.53;;;;;;;-16.27;66.72;98240.53;4936918;29;20052;-78
2022/01/04 04:30:37;;;;;;;9.90;3.63;;;;;;;-16.26;66.58;98244.81;4936692;29;20483;-77
2022/01/04 04:33:04;;;;;;;5.03;3.28;;;;;;;-16.23;67.03;98242.28;4905357;29;20516;-78
2022/01/04 04:35:30;;;;;;;15.27;2.83;;;;;;;-16.27;67.33;98245.66;4920896;29;20130;-77
2022/01/04 04:37:59;;;;;;;2.45;2.25;;;;;;;-16.22;66.96;98241.41;4920505;29;20427;-78
2022/01/04 04:40:25;;;;;;;3.63;2.63;;;;;;;-16.25;67.19;98236.28;4920442;29;20047;-78
2022/01/04 04:42:51;;;;;;;9.10;2.88;;;;;;;-16.14;67.14;98241.47;4904591;29;20495;-78
2022/01/04 04:45:17;;;;;;;3.65;2.67;;;;;;;-16.13;67.08;98233.84;4920813;29;20055;-79
2022/01/04 04:47:43;;;;;;;3.30;2.63;;;;;;;-15.99;67.09;98239.03;4889310;29;20566;-78
2022/01/04 04:50:09;;;;;;;2.60;2.03;;;;;;;-16.08;66.51;98247.50;4937381;29;20040;-78
2022/01/04 04:52:35;;;;;;;5.95;2.63;;;;;;;-16.10;66.93;98254.31;4904832;29;20456;-77
2022/01/04 04:55:02;;;;;;;4.78;3.25;;;;;;;-16.12;66.38;98258.56;4920348;29;20182;-77
2022/01/04 04:57:29;;;;;;;5.38;2.90;;;;;;;-16.13;66.36;98256.88;4936052;29;20047;-77
2022/01/04 04:59:55;;;;;;;6.57;3.67;;;;;;;-16.10;66.28;98263.69;4919942;29;20051;-78
2022/01/04 05:02:21;;;;;;;3.30;2.58;;;;;;;-16.07;66.52;98269.69;4939716;29;20098;-78
2022/01/04 05:04:47;;;;;;;4.05;3.65;;;;;;;-16.05;66.17;98262.03;4949805;29;20040;-77
2022/01/04 05:07:13;;;;;;;4.47;3.20;;;;;;;-16.02;66.38;98257.81;4941685;29;20475;-80
2022/01/04 05:09:39;;;;;;;3.22;2.65;;;;;;;-15.93;66.51;98268.09;4904936;29;20039;-79
2022/01/04 05:12:06;;;;;;;5.82;3.42;;;;;;;-15.86;66.14;98263.03;4920189;29;20519;-75
2022/01/04 05:14:32;;;;;;;5.25;2.80;;;;;;;-15.83;65.97;98268.16;4919604;29;20503;-76
2022/01/04 05:16:59;;;;;;;4.30;3.22;;;;;;;-15.79;65.71;98254.56;4919649;29;20052;-75
2022/01/04 05:19:24;;;;;;;8.07;3.60;;;;;;;-15.64;65.91;98261.41;4919682;29;20419;-76
2022/01/04 05:21:50;;;;;;;4.85;3.47;;;;;;;-15.46;65.53;98264.94;4918531;29;20062;-80
2022/01/04 05:24:16;;;;;;;4.95;3.50;;;;;;;-15.37;65.47;98260.75;4935600;29;20064;-77
2022/01/04 05:26:42;;;;;;;13.48;4.50;;;;;;;-15.23;65.17;98259.09;4935482;29;20134;-75
2022/01/04 05:29:08;;;;;;;3.80;3.30;;;;;;;-15.05;65.28;98259.16;4935795;29;20130;-78
2022/01/04 05:31:34;;;;;;;4.72;3.10;;;;;;;-14.83;65.38;98257.53;4935733;29;20511;-76
2022/01/04 05:34:00;;;;;;;19.75;3.95;;;;;;;-14.71;64.62;98272.13;4920049;29;20507;-75
2022/01/04 05:36:27;;;;;;;28.95;7.50;;;;;;;-14.52;64.54;98267.88;4935173;29;20078;-76
2022/01/04 05:38:52;;;;;;;7.57;3.75;;;;;;;-14.39;64.01;98263.63;4918510;29;20569;-77
2022/01/04 05:41:18;;;;;;;6.75;2.95;;;;;;;-14.26;63.42;98270.47;4903097;29;20071;-75
2022/01/04 05:43:46;;;;;;;9.00;4.75;;;;;;;-14.26;62.80;98270.47;4903575;29;20107;-76
2022/01/04 05:46:12;;;;;;;7.65;3.38;;;;;;;-14.20;62.75;98262.78;4919542;29;20048;-77
2022/01/04 05:48:38;;;;;;;23.58;4.05;;;;;;;-14.11;62.69;98267.91;4919100;29;20051;-81
2022/01/04 05:51:04;;;;;;;4.35;3.10;;;;;;;-14.03;62.51;98273.03;4919297;29;20058;-78
2022/01/04 05:53:30;;;;;;;6.28;3.70;;;;;;;-13.94;62.93;98264.50;4921267;29;20054;-77
2022/01/04 05:55:56;;;;;;;3.80;3.10;;;;;;;-13.83;62.27;98271.34;4905908;29;20522;-80
2022/01/04 05:58:22;;;;;;;7.20;3.63;;;;;;;-13.83;62.23;98265.38;4906522;29;20070;-78
2022/01/04 06:00:49;;;;;;;6.63;4.55;;;;;;;-13.81;62.08;98268.78;4938341;29;20047;-79
2022/01/04 06:03:15;;;;;;;5.10;3.92;;;;;;;-13.91;62.07;98260.22;4922177;29;20463;-78
2022/01/04 06:05:41;;;;;;;3.50;2.88;;;;;;;-13.82;61.98;98272.22;4906461;29;20082;-79
2022/01/04 06:08:07;;;;;;;8.68;4.13;;;;;;;-13.82;61.61;98277.34;4937833;29;20078;-75
2022/01/04 06:10:38;;;;;;;4.22;2.70;;;;;;;-13.87;61.23;98289.34;4905714;29;20065;-78
2022/01/04 06:15:31;;;;;;;4.43;3.28;;;;;;;-14.22;61.74;98287.56;4954735;29;20070;-79
2022/01/04 06:17:58;;;;;;;20.38;4.85;;;;;;;-14.23;61.88;98288.44;4922140;29;20046;-77
2022/01/04 06:20:24;;;;;;;7.53;4.47;;;;;;;-14.17;62.28;98293.59;4906019;29;20047;-76
2022/01/04 06:22:50;;;;;;;9.25;3.47;;;;;;;-14.09;62.09;98309.84;4922402;29;20070;-79
2022/01/04 06:25:18;;;;;;;5.18;3.72;;;;;;;-14.21;62.21;98309.84;4905855;29;20051;-76
2022/01/04 06:27:45;;;;;;;8.25;4.40;;;;;;;-14.21;62.24;98310.69;4921722;29;20134;-82
2022/01/04 06:30:15;;;;;;;7.60;4.50;;;;;;;-14.27;62.82;98309.81;4906161;29;20049;-80
2022/01/04 06:32:42;;;;;;;6.22;4.55;;;;;;;-14.05;63.06;98315.84;4917450;29;20052;-81
2022/01/04 06:35:08;;;;;;;8.80;4.35;;;;;;;-13.98;62.76;98315.88;4937104;29;20129;-78
2022/01/04 06:37:34;;;;;;;5.80;3.45;;;;;;;-13.80;62.56;98324.41;4894974;29;20087;-85
2022/01/04 06:40:00;;;;;;;10.02;4.97;;;;;;;-13.72;62.32;98315.88;4918115;29;20577;-82
2022/01/04 06:42:27;;;;;;;5.95;3.63;;;;;;;-13.44;61.93;98325.28;4918546;29;20083;-84
2022/01/04 06:44:53;;;;;;;8.38;4.57;;;;;;;-13.32;62.08;98333.81;4903409;29;20107;-87
2022/01/04 06:47:19;;;;;;;9.48;5.32;;;;;;;-13.31;61.43;98330.41;4918329;29;20074;-80
2022/01/04 06:49:44;;;;;;;9.13;4.32;;;;;;;-13.17;61.80;98335.47;4886800;29;20507;-80
2022/01/04 06:52:10;;;;;;;8.80;4.13;;;;;;;-13.02;61.60;98330.31;4935107;29;20106;-81
2022/01/04 06:54:37;;;;;;;14.23;5.22;;;;;;;-12.90;61.32;98333.69;4934582;29;20439;-83
2022/01/04 06:57:03;;;;;;;8.27;5.10;;;;;;;-12.77;61.08;98330.25;4902444;29;20035;-81
2022/01/04 06:59:29;;;;;;;13.00;4.82;;;;;;;-12.69;61.04;98331.06;4935293;29;20518;-79
2022/01/04 07:02:00;;;;;;;8.77;4.85;;;;;;;-12.52;60.46;98326.72;4917847;29;20051;-81
2022/01/04 07:04:26;;;;;;;4.45;3.20;;;;;;;-12.46;60.51;98332.69;4902446;29;20047;-81
2022/01/04 07:06:52;;;;;;;9.80;5.28;;;;;;;-12.42;60.20;98321.50;4902230;29;20047;-80
2022/01/04 07:09:19;;;;;;;4.43;3.30;;;;;;;-12.39;59.97;98326.66;4909186;29;20040;-81
2022/01/04 07:11:44;;;;;;;5.38;4.07;;;;;;;-12.35;60.07;98321.47;4898962;29;20067;-83
2022/01/04 07:14:10;;;;;;;9.75;4.40;;;;;;;-12.35;60.06;98330.91;4915916;29;20084;-80
2022/01/04 07:16:36;;;;;;;27.45;4.90;;;;;;;-12.38;60.34;98333.50;4915896;29;20102;-79
2022/01/04 07:19:02;;;;;;;10.10;4.03;;;;;;;-12.24;60.41;98336.88;4914869;29;20091;-82
2022/01/04 07:21:28;;;;;;;6.68;3.72;;;;;;;-12.26;60.18;98338.56;4914910;29;20127;-82
2022/01/04 07:23:55;;;;;;;9.38;5.38;;;;;;;-12.37;59.90;98327.47;4883890;29;20055;-76
2022/01/04 07:26:21;;;;;;;6.00;4.45;;;;;;;-12.36;59.92;98324.06;4914640;29;20535;-77
2022/01/04 07:28:48;;;;;;;6.35;3.63;;;;;;;-12.13;59.80;98319.63;4930769;29;20519;-78
2022/01/04 07:31:14;;;;;;;9.43;4.15;;;;;;;-12.02;59.75;98310.13;4915442;29;20052;-86
2022/01/04 07:33:40;;;;;;;14.95;5.57;;;;;;;-11.89;59.66;98312.59;4915393;29;20048;-91
2022/01/04 07:36:08;;;;;;;12.98;4.63;;;;;;;-11.74;59.40;98328.75;4916356;29;20076;-86
2022/01/04 07:38:35;;;;;;;8.15;5.22;;;;;;;-11.68;59.08;98322.72;4901550;29;20062;-83
2022/01/04 07:41:01;;;;;;;10.88;5.70;;;;;;;-11.58;59.22;98318.38;4915764;29;20055;-87
2022/01/04 07:43:27;;;;;;;12.10;6.00;;;;;;;-11.30;58.75;98326.69;4885124;29;20549;-89
2022/01/04 07:45:53;;;;;;;12.23;6.55;;;;;;;-11.16;58.04;98332.59;4871917;29;20160;-88
2022/01/04 07:48:21;;;;;;;10.45;5.35;;;;;;;-11.25;57.60;98317.19;4920971;29;20534;-94
2022/01/04 07:50:47;;;;;;;11.00;6.15;;;;;;;-11.09;58.08;98318.75;4888153;29;20127;-83
2022/01/04 07:53:13;;;;;;;9.60;5.68;;;;;;;-10.83;57.81;98321.06;4906928;29;20084;-86
2022/01/04 07:55:39;;;;;;;9.82;5.05;;;;;;;-10.69;57.70;98323.47;4888845;29;20048;-91
2022/01/04 07:58:05;;;;;;;11.45;6.40;;;;;;;-10.71;56.83;98325.22;4902461;29;20119;-80
2022/01/04 08:00:34;;;;;;;10.35;6.18;;;;;;;-10.63;56.66;98327.72;4937427;29;20059;-87
2022/01/04 08:03:00;;;;;;;12.75;5.80;;;;;;;-10.75;56.41;98315.81;4905534;29;20055;-83
2022/01/04 08:05:26;;;;;;;11.27;6.05;;;;;;;-10.65;56.20;98325.16;4921519;29;20043;-80
2022/01/04 08:07:52;;;;;;;13.55;6.57;;;;;;;-10.72;56.33;98323.50;4921053;29;20518;-80
2022/01/04 08:10:21;;;;;;;15.75;6.68;;;;;;;-10.55;56.05;98324.16;4919746;29;20071;-78
2022/01/04 08:12:47;;;;;;;12.25;6.88;;;;;;;-10.39;56.07;98327.41;4904725;29;20058;-79
2022/01/04 08:15:12;;;;;;;8.75;5.68;;;;;;;-10.31;55.61;98325.56;4920608;29;20091;-77
2022/01/04 08:17:41;;;;;;;13.95;6.20;;;;;;;-10.44;55.52;98315.44;4920497;29;20079;-80
2022/01/04 08:20:07;;;;;;;10.73;5.77;;;;;;;-10.40;55.28;98335.19;4936152;29;20043;-78
2022/01/04 08:22:34;;;;;;;10.55;5.45;;;;;;;-10.42;54.62;98318.84;4919874;29;20134;-79
2022/01/04 08:25:08;;;;;;;13.23;6.38;;;;;;;-10.44;55.22;98325.78;4890052;29;20047;-90
2022/01/04 08:27:34;;;;;;;22.38;6.03;;;;;;;-10.32;55.20;98315.28;4922014;29;20059;-88
2022/01/04 08:30:00;;;;;;;11.10;4.43;;;;;;;-10.22;55.24;98328.91;4904618;29;20052;-83
2022/01/04 08:32:26;;;;;;;11.57;6.20;;;;;;;-10.28;55.40;98337.59;4918552;29;20047;-89
2022/01/04 08:34:52;;;;;;;16.52;7.13;;;;;;;-10.09;55.09;98327.84;4886797;29;20058;-85
2022/01/04 08:37:18;;;;;;;15.05;7.45;;;;;;;-10.03;55.21;98320.88;4912365;29;20063;-84
2022/01/04 08:39:44;;;;;;;14.48;6.15;;;;;;;-9.96;55.02;98331.13;4899732;29;20142;-86
2022/01/04 08:42:10;;;;;;;18.00;8.73;;;;;;;-10.08;54.48;98314.94;4876073;29;20063;-91
2022/01/04 08:44:39;;;;;;;15.90;6.78;;;;;;;-10.19;54.82;98315.91;4860940;29;20040;-93
2022/01/04 08:47:09;;;;;;;15.02;7.30;;;;;;;-10.26;54.47;98322.97;4910551;29;20140;-91
2022/01/04 08:49:39;;;;;;;8.18;5.35;;;;;;;-10.33;54.79;98336.81;4873186;29;20172;-90
2022/01/04 08:52:06;;;;;;;19.20;10.32;;;;;;;-10.32;55.72;98334.22;4871830;29;20051;-89
2022/01/04 08:54:31;;;;;;;20.50;9.35;;;;;;;-10.17;55.47;98334.84;4903642;29;20047;-91
2022/01/04 08:56:58;;;;;;;14.02;6.72;;;;;;;-10.40;54.98;98335.19;4901795;29;20066;-87
2022/01/04 08:59:26;;;;;;;14.98;8.77;;;;;;;-10.18;55.76;98321.09;4905437;29;20579;-81
2022/01/04 09:01:52;;;;;;;15.85;8.00;;;;;;;-10.00;55.23;98324.28;4917073;29;20059;-82
2022/01/04 09:04:19;;;;;;;16.40;8.38;;;;;;;-9.81;55.24;98325.75;4854778;29;20405;-79
2022/01/04 09:06:46;;;;;;;15.07;8.93;;;;;;;-9.64;55.75;98323.72;4869953;29;20067;-87
2022/01/04 09:09:12;;;;;;;17.50;8.20;;;;;;;-9.60;57.76;98327.97;4870088;29;20059;-86
2022/01/04 09:11:38;;;;;;;18.80;8.77;;;;;;;-9.30;55.64;98323.19;4901286;29;20571;-82
2022/01/04 09:19:30;;;;;;;11.77;7.10;;;;;;;-8.73;53.55;98323.00;4885558;29;20072;-77
2022/01/04 09:21:56;;;;;;;10.02;5.93;;;;;;;-8.69;52.11;98329.84;4869561;29;20119;-79
2022/01/04 09:24:22;;;;;;;18.48;8.75;;;;;;;-8.67;52.14;98330.66;4870853;29;20043;-82
2022/01/04 09:26:48;;;;;;;52.65;14.07;;;;;;;-8.81;51.88;98333.50;4935334;29;20050;-81
2022/01/04 09:29:17;;;;;;;11.32;6.47;;;;;;;-8.69;51.20;98326.41;4936585;29;20055;-82
2022/01/04 09:31:43;;;;;;;19.63;8.88;;;;;;;-8.72;51.66;98324.75;4919479;29;20047;-83
2022/01/04 09:34:08;;;;;;;15.25;7.88;;;;;;;-8.59;50.82;98333.97;4903582;29;20141;-86
2022/01/04 09:36:39;;;;;;;17.90;8.50;;;;;;;-8.48;50.50;98322.53;4879929;29;20054;-82
2022/01/04 09:39:14;;;;;;;18.92;7.25;;;;;;;-8.69;50.65;98321.22;4919221;29;20172;-83
2022/01/04 09:41:40;;;;;;;16.33;7.35;;;;;;;-8.77;50.73;98328.28;4911085;29;20142;-82
2022/01/04 09:44:06;;;;;;;21.58;9.18;;;;;;;-8.92;50.92;98314.72;4898574;29;20064;-81
2022/01/04 09:46:33;;;;;;;16.92;8.13;;;;;;;-8.87;51.11;98317.25;4902069;29;20055;-81
2022/01/04 09:49:00;;;;;;;19.40;9.05;;;;;;;-8.90;50.63;98312.97;4919386;29;20077;-81
2022/01/04 09:51:29;;;;;;;18.77;7.43;;;;;;;-9.06;50.69;98312.41;4908515;29;20036;-80
2022/01/04 09:53:55;;;;;;;25.05;9.65;;;;;;;-9.23;51.37;98318.75;4879421;29;20052;-81
2022/01/04 09:56:21;;;;;;;17.15;9.07;;;;;;;-9.26;51.44;98319.66;4903198;29;20430;-82
2022/01/04 09:58:47;;;;;;;11.75;6.82;;;;;;;-9.30;51.28;98320.59;4902922;29;20086;-79
2022/01/04 10:01:19;;;;;;;25.25;9.35;;;;;;;-9.36;51.69;98320.72;4885751;29;20040;-79
2022/01/04 10:03:46;;;;;;;14.40;6.43;;;;;;;-9.62;51.66;98316.81;4892322;29;20035;-79
2022/01/04 10:06:15;;;;;;;11.73;8.00;;;;;;;-9.64;51.48;98309.94;4872684;29;20083;-80
2022/01/04 10:08:55;;;;;;;15.40;8.18;;;;;;;-9.62;51.73;98321.13;4886102;29;20075;-80
2022/01/04 10:11:39;;;;;;;16.48;7.65;;;;;;;-9.51;51.89;98324.41;4885837;29;20091;-82
2022/01/04 10:14:23;;;;;;;14.73;7.93;;;;;;;-9.50;51.54;98322.66;4901127;29;20052;-80
2022/01/04 10:16:51;;;;;;;14.65;8.48;;;;;;;-9.52;51.30;98311.47;4884179;29;20044;-81
2022/01/04 10:19:47;;;;;;;12.95;6.70;;;;;;;-9.58;51.88;98312.44;4884522;29;20063;-82
2022/01/04 10:22:17;;;;;;;11.43;6.32;;;;;;;-9.57;51.94;98319.31;4895397;29;20078;-81
2022/01/04 10:24:45;;;;;;;10.23;6.28;;;;;;;-9.58;51.75;98317.63;4915548;29;20048;-80
2022/01/04 10:27:27;;;;;;;11.90;6.22;;;;;;;-9.60;51.45;98322.81;4900050;29;20551;-78
2022/01/04 10:30:23;;;;;;;10.50;5.82;;;;;;;-9.75;51.95;98327.38;4916109;29;20570;-81
2022/01/04 10:32:54;;;;;;;8.18;5.00;;;;;;;-10.18;52.16;98325.41;4900162;29;20075;-83
2022/01/04 10:35:32;;;;;;;11.82;6.72;;;;;;;-10.30;52.87;98310.97;4916108;29;20059;-82
2022/01/04 10:38:20;;;;;;;7.90;4.03;;;;;;;-10.14;52.82;98316.72;4901107;29;20500;-80
2022/01/04 10:41:04;;;;;;;13.45;7.65;;;;;;;-10.13;52.83;98327.03;4917109;29;20389;-82
2022/01/04 10:43:40;;;;;;;8.55;5.35;;;;;;;-10.05;52.97;98319.19;4915433;29;20052;-82
2022/01/04 10:46:07;;;;;;;10.20;5.57;;;;;;;-10.09;52.67;98326.13;4931358;29;20177;-79
2022/01/04 10:48:39;;;;;;;13.98;6.60;;;;;;;-10.06;52.74;98326.06;4899515;29;20075;-86
2022/01/04 10:51:15;;;;;;;11.07;5.68;;;;;;;-10.03;52.90;98320.03;4900686;29;20040;-85
2022/01/04 10:53:55;;;;;;;9.85;5.55;;;;;;;-9.98;53.16;98330.28;4900196;29;20570;-87
2022/01/04 10:56:37;;;;;;;10.15;6.00;;;;;;;-10.10;52.39;98336.50;4900284;29;20120;-83
2022/01/04 10:59:12;;;;;;;14.60;8.05;;;;;;;-10.05;52.19;98337.25;4899772;29;20051;-83
2022/01/04 11:01:50;;;;;;;13.82;6.45;;;;;;;-10.13;53.00;98339.09;4914829;29;20479;-82
2022/01/04 11:04:20;;;;;;;10.52;6.05;;;;;;;-10.25;52.68;98342.75;4900298;29;20075;-82
2022/01/04 11:06:47;;;;;;;13.73;6.60;;;;;;;-9.91;57.19;98342.25;4916057;29;20048;-82
2022/01/04 11:09:14;;;;;;;8.40;4.85;;;;;;;-9.79;55.56;98339.47;4900204;29;20052;-81
2022/01/04 11:11:40;;;;;;;11.70;5.88;;;;;;;-9.96;52.82;98344.06;4900211;29;20537;-82
2022/01/04 11:14:07;;;;;;;6.90;4.65;;;;;;;-10.42;52.06;98348.09;4883923;29;20066;-81
2022/01/04 11:16:33;;;;;;;9.20;4.68;;;;;;;-10.70;53.02;98363.09;4899511;29;20043;-85
2022/01/04 11:18:59;;;;;;;13.25;7.35;;;;;;;-11.00;53.40;98366.84;4885016;29;20048;-86
2022/01/04 11:21:46;;;;;;;11.43;6.30;;;;;;;-11.45;53.83;98366.38;4903107;29;20528;-80
2022/01/04 11:24:13;;;;;;;10.55;5.82;;;;;;;-11.75;54.52;98373.47;4902798;29;20147;-79
2022/01/04 11:26:40;;;;;;;9.38;5.30;;;;;;;-11.97;55.21;98374.50;4934629;29;20083;-83
2022/01/04 11:29:06;;;;;;;14.35;5.95;;;;;;;-12.21;55.25;98383.22;4918828;29;20076;-80
2022/01/04 11:31:56;;;;;;;9.18;5.75;;;;;;;-12.34;55.98;98389.28;4919170;29;20052;-82
2022/01/04 11:34:49;;;;;;;6.78;4.65;;;;;;;-12.54;56.20;98390.22;4919747;29;20439;-83
2022/01/04 11:37:18;;;;;;;13.50;6.25;;;;;;;-12.67;56.75;98385.97;4882229;29;20060;-78
2022/01/04 11:39:44;;;;;;;15.85;7.38;;;;;;;-12.87;56.95;98385.16;4902908;29;20459;-81